CheckWX is a tool to help pilots better visualize weather data.  It is not intended as a substitute for an official pre-flight weather briefing.

04:46:34 UTC

LYBT TAF
Batajnica Air Base Airport
Batajnica, Serbia
TAF LYBT 092300Z 1000/1024 10004KT CAVOK TX06/1000Z TN04/1018Z BECMG 1004/1006 32010KT 5000 RA BKN010 BKN027 TEMPO 1012/1018 32010G20KT BKN006 BKN025 BECMG 1018/1020 NSW

Dec-10@
00:00 UTC

Dec-10 @ 00:00 UTC

Dec-10@
04:00 UTC

Dec-10 @ 04:00 UTC

TAF LYBT 092300Z 1000/1024 10004KT CAVOK TX06/1000Z TN04/1018Z

Expired

Wind
  • 100° at 4 KTS
Cloud Levels
  • No significant clouds

Dec-10@
04:00 UTC

Dec-10 @ 04:00 UTC

Dec-10@
18:00 UTC

Dec-10 @ 18:00 UTC

BECMG 1004/1006 32010KT 5000 RA BKN010 BKN027

Becoming

Becoming Conditions expected by Tue, Dec 10, 2019 @ 06:00 UTC

Wind
  • 320° at 10 KTS
Conditions
Rain
Cloud Levels
  • Broken at 1,000' AGL
  • Broken at 2,700' AGL

Dec-10@
12:00 UTC

Dec-10 @ 12:00 UTC

Dec-10@
18:00 UTC

Dec-10 @ 18:00 UTC

TEMPO 1012/1018 32010G20KT BKN006 BKN025

Temporary

Temporary Changes expected for less than half the time period

Wind
  • 320° at 10 KTS
  • {Gusting to 20 KTS
Cloud Levels
  • Broken at 600' AGL
  • Broken at 2,500' AGL

Dec-10@
18:00 UTC

Dec-10 @ 18:00 UTC

Dec-11@
00:00 UTC

Dec-11 @ 00:00 UTC

BECMG 1018/1020 NSW

Becoming

Becoming Conditions expected by Tue, Dec 10, 2019 @ 20:00 UTC

Wind
  • 320° at 10 KTS
Conditions
No significant weather
Cloud Levels
  • Broken at 1,000' AGL
  • Broken at 2,700' AGL